Time;durP1;ratioP1;P1;durP2;ratioP2;P2;SDS_P1;SDS_P2;PMS_P1;PMS_P2;Temp;Humidity;BMP_temperature;BMP_pressure;BME280_temperature;BME280_humidity;BME280_pressure;Samples;Min_cycle;Max_cycle;Signal;HPM_P1;HPM_P2
2024/01/12 11:54:38;;;;;;;;;;;;;;;-7.69;95.97;100338.83;1745080;82;20388;-74
2024/01/12 11:57:05;;;;;;;;;;;;;;;-7.66;95.77;100336.37;1748544;82;20139;-75
2024/01/12 11:59:32;;;;;;;;;;;;;;;-7.61;95.84;100336.47;1745221;82;20121;-73
2024/01/12 12:02:04;;;;;;;;;;;;;;;-7.59;95.93;100334.39;1742437;80;20135;-77
2024/01/12 12:04:31;;;;;;;;;;;;;;;-7.53;96.13;100327.34;1741539;80;20407;-71
2024/01/12 12:06:58;;;;;;;;;;;;;;;-7.47;96.18;100323.69;1753158;82;20187;-72
2024/01/12 12:09:25;;;;;;;;;;;;;;;-7.44;96.12;100322.48;1756743;82;20178;-73
2024/01/12 12:11:52;;;;;;;;;;;;;;;-7.38;96.15;100320.09;1758292;79;20424;-73
2024/01/12 12:14:19;;;;;;;;;;;;;;;-7.33;95.96;100323.98;1763707;79;20100;-78
2024/01/12 12:16:45;;;;;;;;;;;;;;;-7.32;96.09;100321.48;1771525;81;20112;-77
2024/01/12 12:19:12;;;;;;;;;;;;;;;-7.32;95.60;100327.80;1754167;79;20184;-76
2024/01/12 12:21:38;;;;;;;;;;;;;;;-7.31;95.77;100327.39;1747480;81;20098;-73
2024/01/12 12:24:05;;;;;;;;;;;;;;;-7.30;95.81;100326.16;1717551;82;20114;-73
2024/01/12 12:26:32;;;;;;;;;;;;;;;-7.26;95.87;100321.61;1745221;81;20117;-72
2024/01/12 12:28:59;;;;;;;;;;;;;;;-7.21;95.81;100320.44;1744298;82;20106;-71
2024/01/12 12:31:27;;;;;;;;;;;;;;;-7.17;95.74;100322.17;1749609;81;20206;-73
2024/01/12 12:33:54;;;;;;;;;;;;;;;-7.14;95.91;100325.63;1757084;81;20378;-71
2024/01/12 12:36:21;;;;;;;;;;;;;;;-7.10;95.70;100327.39;1774916;81;20151;-70
2024/01/12 12:38:48;;;;;;;;;;;;;;;-7.09;95.33;100325.30;1768845;79;20099;-70
2024/01/12 12:41:15;;;;;;;;;;;;;;;-7.10;95.34;100326.54;1754257;81;20386;-71
2024/01/12 12:43:43;;;;;;;;;;;;;;;-7.13;95.42;100326.06;1748830;81;20094;-72
2024/01/12 12:46:10;;;;;;;;;;;;;;;-7.14;95.98;100323.50;1793854;79;20104;-73
2024/01/12 12:48:43;;;;;;;;;;;;;;;-7.16;95.63;100327.27;1792771;79;20436;-73
2024/01/12 12:51:10;;;;;;;;;;;;;;;-7.23;95.27;100328.00;1744641;82;20114;-74
2024/01/12 12:53:37;;;;;;;;;;;;;;;-7.27;95.02;100327.48;1744604;82;20117;-71
2024/01/12 12:56:04;;;;;;;;;;;;;;;-7.34;94.87;100321.01;1747899;79;20374;-71
2024/01/12 12:58:31;;;;;;;;;;;;;;;-7.40;95.10;100330.58;1756665;79;20432;-71
2024/01/12 13:01:02;;;;;;;;;;;;;;;-7.44;95.34;100331.34;1755734;79;20099;-73
2024/01/12 13:03:30;;;;;;;;;;;;;;;-7.45;95.81;100329.63;1763417;79;20414;-73
2024/01/12 13:05:59;;;;;;;;;;;;;;;-7.44;96.03;100334.72;1748838;81;20142;-72
2024/01/12 13:08:25;;;;;;;;;;;;;;;-7.42;96.19;100334.34;1774667;80;20096;-73
2024/01/12 13:10:52;;;;;;;;;;;;;;;-7.40;96.05;100337.77;1774924;80;20095;-72
2024/01/12 13:13:19;;;;;;;;;;;;;;;-7.39;95.81;100334.82;1775334;80;20119;-73
2024/01/12 13:15:45;;;;;;;;;;;;;;;-7.44;95.67;100337.25;1775420;81;20101;-72
2024/01/12 13:18:12;;;;;;;;;;;;;;;-7.43;96.01;100335.58;1781976;80;20085;-73
2024/01/12 13:20:40;;;;;;;;;;;;;;;-7.44;95.87;100328.41;1765653;80;20261;-73
2024/01/12 13:23:07;;;;;;;;;;;;;;;-7.44;95.35;100333.45;1772197;80;20337;-72
2024/01/12 13:25:34;;;;;;;;;;;;;;;-7.49;94.77;100317.33;1754477;82;20159;-72
2024/01/12 13:28:00;;;;;;;;;;;;;;;-7.54;94.68;100326.49;1754598;82;20131;-72
2024/01/12 13:30:27;;;;;;;;;;;;;;;-7.61;94.26;100319.63;1765507;80;20171;-73
2024/01/12 13:32:53;;;;;;;;;;;;;;;-7.69;94.39;100326.19;1776247;80;20446;-71
2024/01/12 13:35:21;;;;;;;;;;;;;;;-7.78;94.28;100321.78;1781643;80;20441;-71
2024/01/12 13:37:47;;;;;;;;;;;;;;;-7.84;94.83;100325.84;1784101;80;20139;-71
2024/01/12 13:40:14;;;;;;;;;;;;;;;-7.91;94.78;100323.58;1761933;80;20138;-72
2024/01/12 13:42:42;;;;;;;;;;;;;;;-8.01;94.18;100324.22;1727169;82;20107;-71
2024/01/12 13:45:09;;;;;;;;;;;;;;;-8.13;94.57;100321.39;1772199;80;20100;-71
2024/01/12 13:47:36;;;;;;;;;;;;;;;-8.19;94.78;100321.25;1778080;80;20418;-75
2024/01/12 13:50:03;;;;;;;;;;;;;;;-8.28;94.74;100316.83;1774547;80;20115;-74
2024/01/12 13:52:31;;;;;;;;;;;;;;;-8.35;94.47;100317.94;1754818;81;20135;-72
2024/01/12 13:54:57;;;;;;;;;;;;;;;-8.46;94.28;100308.86;1759476;80;20134;-77
2024/01/12 13:57:24;;;;;;;;;;;;;;;-8.57;94.28;100316.57;1754585;82;20849;-74
2024/01/12 13:59:50;;;;;;;;;;;;;;;-8.68;94.18;100314.17;1727933;82;20145;-74
2024/01/12 14:02:17;;;;;;;;;;;;;;;-8.80;94.10;100318.52;1759445;79;20144;-73
2024/01/12 14:04:43;;;;;;;;;;;;;;;-8.93;94.25;100319.02;1784725;80;20148;-74
2024/01/12 14:07:10;;;;;;;;;;;;;;;-9.02;94.44;100321.28;1785185;80;20386;-72
2024/01/12 14:09:37;;;;;;;;;;;;;;;-9.10;94.75;100321.92;1785442;80;20144;-72
2024/01/12 14:12:04;;;;;;;;;;;;;;;-9.17;94.75;100321.30;1785312;80;20362;-74
2024/01/12 14:14:31;;;;;;;;;;;;;;;-9.23;94.67;100326.61;1757769;80;20110;-71
2024/01/12 14:17:00;;;;;;;;;;;;;;;-9.29;94.74;100332.74;1739885;80;20088;-72
2024/01/12 14:19:26;;;;;;;;;;;;;;;-9.38;94.75;100328.70;1764040;80;20123;-72
2024/01/12 14:21:53;;;;;;;;;;;;;;;-9.46;94.87;100326.80;1768305;80;20111;-73
2024/01/12 14:24:20;;;;;;;;;;;;;;;-9.53;94.99;100322.39;1768721;80;20390;-72
2024/01/12 14:26:47;;;;;;;;;;;;;;;-9.61;95.06;100317.56;1772297;80;20119;-73
2024/01/12 14:29:14;;;;;;;;;;;;;;;-9.68;95.11;100319.45;1755840;81;20120;-74
2024/01/12 14:31:40;;;;;;;;;;;;;;;-9.72;95.29;100318.05;1746800;81;20367;-71
2024/01/12 14:34:07;;;;;;;;;;;;;;;-9.80;95.45;100312.38;1771064;80;20127;-77
2024/01/12 14:36:34;;;;;;;;;;;;;;;-9.85;95.65;100317.68;1771933;81;20132;-76
2024/01/12 14:39:01;;;;;;;;;;;;;;;-9.91;95.52;100321.27;1753037;81;20132;-78
2024/01/12 14:41:28;;;;;;;;;;;;;;;-9.97;95.61;100322.75;1754454;80;20432;-74
2024/01/12 14:43:54;;;;;;;;;;;;;;;-10.05;95.64;100327.98;1776440;81;20188;-72
2024/01/12 14:46:21;;;;;;;;;;;;;;;-10.12;95.81;100322.75;1761561;81;20154;-73
2024/01/12 14:48:48;;;;;;;;;;;;;;;-10.17;95.99;100325.92;1747593;81;20095;-72
2024/01/12 14:51:14;;;;;;;;;;;;;;;-10.22;95.76;100331.25;1748356;81;20408;-73
2024/01/12 14:53:41;;;;;;;;;;;;;;;-10.28;95.58;100327.27;1755610;81;20215;-73
2024/01/12 14:56:08;;;;;;;;;;;;;;;-10.33;95.58;100327.12;1769513;81;20105;-75
2024/01/12 14:58:37;;;;;;;;;;;;;;;-10.39;96.02;100323.15;1748625;81;20136;-74
